Flowery Branch, GA (30542)

11:39 AM EDT on septembrie 25, 2016 (GMT -0400)
Sterling on the Lake | | Change Station

Elev 1000 ft 34.15 °N, 83.90 °W | Updated 1 minute ago

Clear
Cer senin
81.9 °F
Feels Like 85 °F
N
1.0
Vânt variabil Vânt from est

astăzi
High -- | Low -- °F
--% Chance of Precip.
Ieri
High -- | Low -- °F
Precip. -- inch
Presiunea 30.12 inch
Vizibilitatea 10.0 mile
Nori Cer senin
Indicele de căldură 85 °F
Punctul de rouă 69 °F
Umiditatea 66%
Precipitaţii 0.00 inch
Adâncimea zăpezii Not available.
7:26 AM 7:27 PM
Semilună în descreştere, 27% visible
METAR KGVL 251453Z AUTO 00000KT 10SM CLR 28/19 A3016 RMK AO2 SLP197 T02780194 51005
Presiunea 30.12 inch
Vizibilitatea 10.0 mile
Nori Cer senin
Indicele de căldură 85 °F
Punctul de rouă 69 °F
Umiditatea 66%
Precipitaţii 0.00 inch
Adâncimea zăpezii Not available.
7:26 AM 7:27 PM
Semilună în descreştere, 27% visible
METAR KGVL 251453Z AUTO 00000KT 10SM CLR 28/19 A3016 RMK AO2 SLP197 T02780194 51005

10-Day Weather Forecast

Almanac

Astronomie

Sep. 25, 2016 Răsărit Apus
Timpul Actual
Crepusculul Civil
Crepusculul nautic
Răsărit Astronomic
Luna
Durata zilei lumină
Lungimea zilei
Tomorrow will be .
, % of the Moon is Illuminated

Extremele de azi

State Highs State Lows

Community

WunderPhotos

Upload Photos

1,941,644 photos uploaded!

WunderBlog® & News

Nearby

Calitatea aerului

  Calitatea aerului Index de calitate a aerului Poluat
Not available.

Adâncimea zapezii

Station Depth Elevation

Earthquake Activity

Oraş Distance Mag. Time & Date
Minimum magnitude displayed is 2.5.

Coastal Water Temperatures

Locul Temperatura

Stations

Nearby Weather Stations

Locaţia staţiei Temp Vânt rece Punctul de rouă Umiditatea Vânt Precip. Elev Actualizare Type
                   

Watches & Warnings

There are currently no watches in effect.